Wetterdaten: Woche 12.08.13 - 18.08.13 (KW33)
Datum Zeit Temp. A. Feuchte A. Luftdruck Regen Wind Richtung Taupunkt Windchill Windben
12.08.2013 00:00 14,9 C 80 % 1015,2 hPa 0,0 l/m 0,9 km/h (0 Bft) SW 11,4 C 14,9 C 3,6 km/h (1 Bft)
12.08.2013 01:00 13,9 C 84 % 1015,3 hPa 0,0 l/m 0,0 km/h (0 Bft) N 11,2 C 13,9 C 0,0 km/h (0 Bft)
12.08.2013 02:00 13,1 C 87 % 1015,0 hPa 0,0 l/m 0,4 km/h (0 Bft) S 11,0 C 13,1 C 1,3 km/h (1 Bft)
12.08.2013 03:00 12,0 C 90 % 1014,8 hPa 0,0 l/m 0,4 km/h (0 Bft) S-SW 10,3 C 12,0 C 1,2 km/h (1 Bft)
12.08.2013 04:00 11,4 C 92 % 1014,6 hPa 0,0 l/m 0,3 km/h (0 Bft) N 10,1 C 11,4 C 0,9 km/h (0 Bft)
12.08.2013 05:00 12,2 C 92 % 1014,7 hPa 0,2 l/m 1,1 km/h (1 Bft) S 10,9 C 12,2 C 3,1 km/h (1 Bft)
12.08.2013 06:00 13,4 C 93 % 1014,6 hPa 0,0 l/m 2,1 km/h (1 Bft) SW 12,3 C 13,4 C 4,9 km/h (1 Bft)
12.08.2013 07:00 14,1 C 93 % 1014,8 hPa 0,0 l/m 1,6 km/h (1 Bft) SW 13,0 C 14,1 C 4,3 km/h (1 Bft)
12.08.2013 08:00 15,8 C 89 % 1014,9 hPa 0,0 l/m 5,2 km/h (1 Bft) S-SW 14,0 C 15,8 C 11,8 km/h (2 Bft)
12.08.2013 09:00 16,9 C 86 % 1014,9 hPa 0,0 l/m 4,6 km/h (1 Bft) SW 14,5 C 16,9 C 10,7 km/h (2 Bft)
12.08.2013 10:00 18,3 C 79 % 1014,8 hPa 0,0 l/m 4,8 km/h (1 Bft) SW 14,6 C 18,3 C 10,9 km/h (2 Bft)
12.08.2013 11:00 19,4 C 74 % 1014,2 hPa 0,0 l/m 3,8 km/h (1 Bft) S 14,7 C 19,4 C 8,9 km/h (2 Bft)
12.08.2013 12:00 17,0 C 82 % 1014,2 hPa 5,4 l/m 3,5 km/h (1 Bft) W 13,8 C 16,9 C 9,1 km/h (2 Bft)
12.08.2013 13:00 16,7 C 88 % 1014,0 hPa 0,0 l/m 1,7 km/h (1 Bft) S-SW 14,7 C 16,7 C 4,5 km/h (1 Bft)
12.08.2013 14:00 18,6 C 80 % 1013,6 hPa 0,0 l/m 4,3 km/h (1 Bft) SW 15,0 C 18,6 C 9,0 km/h (2 Bft)
12.08.2013 15:00 20,1 C 71 % 1013,0 hPa 0,0 l/m 5,5 km/h (2 Bft) W-SW 14,5 C 20,0 C 13,7 km/h (3 Bft)
12.08.2013 16:00 20,6 C 61 % 1012,6 hPa 0,0 l/m 5,4 km/h (1 Bft) W 12,7 C 20,5 C 13,4 km/h (3 Bft)
12.08.2013 17:00 20,7 C 60 % 1012,2 hPa 0,0 l/m 4,0 km/h (1 Bft) SW 12,7 C 20,7 C 9,9 km/h (2 Bft)
12.08.2013 18:00 20,3 C 60 % 1012,2 hPa 0,0 l/m 3,8 km/h (1 Bft) NW 12,3 C 20,3 C 9,7 km/h (2 Bft)
12.08.2013 19:00 19,0 C 65 % 1012,3 hPa 0,0 l/m 0,4 km/h (0 Bft) N 12,3 C 19,0 C 1,6 km/h (1 Bft)
12.08.2013 20:00 17,9 C 69 % 1012,5 hPa 0,0 l/m 0,4 km/h (0 Bft) N 12,2 C 17,9 C 2,4 km/h (1 Bft)
12.08.2013 21:00 16,5 C 77 % 1012,6 hPa 0,0 l/m 0,1 km/h (0 Bft) N 12,5 C 16,5 C 0,7 km/h (0 Bft)
12.08.2013 22:00 15,7 C 82 % 1012,4 hPa 0,0 l/m 0,0 km/h (0 Bft) N 12,6 C 15,7 C 0,0 km/h (0 Bft)
12.08.2013 23:00 15,5 C 81 % 1012,5 hPa 0,0 l/m 0,3 km/h (0 Bft) W-NW 12,3 C 15,5 C 1,6 km/h (1 Bft)
13.08.2013 00:00 14,3 C 84 % 1012,9 hPa 0,0 l/m 1,6 km/h (1 Bft) NW 11,6 C 14,3 C 5,1 km/h (1 Bft)
13.08.2013 01:00 14,1 C 85 % 1013,1 hPa 0,0 l/m 0,7 km/h (0 Bft) NW 11,5 C 14,1 C 2,0 km/h (1 Bft)
13.08.2013 02:00 13,2 C 89 % 1012,8 hPa 0,0 l/m 0,0 km/h (0 Bft) N 11,5 C 13,2 C 0,0 km/h (0 Bft)
13.08.2013 03:00 12,3 C 91 % 1012,9 hPa 0,0 l/m 0,0 km/h (0 Bft) N 10,9 C 12,3 C 0,0 km/h (0 Bft)
13.08.2013 04:00 11,6 C 93 % 1013,1 hPa 0,2 l/m 0,5 km/h (0 Bft) S-SW 10,5 C 11,6 C 2,0 km/h (1 Bft)
13.08.2013 05:00 10,9 C 93 % 1013,1 hPa 0,0 l/m 0,1 km/h (0 Bft) N 9,9 C 10,9 C 0,4 km/h (0 Bft)
13.08.2013 06:00 10,7 C 94 % 1013,3 hPa 0,0 l/m 0,5 km/h (0 Bft) S-SO 9,8 C 10,7 C 1,3 km/h (1 Bft)
13.08.2013 07:00 12,0 C 92 % 1013,6 hPa 0,0 l/m 2,0 km/h (1 Bft) SW 10,7 C 12,0 C 5,1 km/h (1 Bft)
13.08.2013 08:00 13,4 C 86 % 1013,8 hPa 0,0 l/m 3,8 km/h (1 Bft) SW 11,2 C 13,4 C 11,1 km/h (2 Bft)
13.08.2013 09:00 15,0 C 80 % 1014,2 hPa 0,0 l/m 6,9 km/h (2 Bft) S-SW 11,6 C 14,5 C 17,3 km/h (3 Bft)
13.08.2013 10:00 16,6 C 74 % 1014,5 hPa 0,0 l/m 5,9 km/h (2 Bft) W 11,9 C 16,4 C 17,0 km/h (3 Bft)
13.08.2013 11:00 17,5 C 69 % 1014,6 hPa 0,0 l/m 6,0 km/h (2 Bft) W-SW 11,7 C 17,3 C 15,2 km/h (3 Bft)
13.08.2013 12:00 18,5 C 64 % 1014,5 hPa 0,0 l/m 6,3 km/h (2 Bft) W 11,5 C 18,4 C 15,8 km/h (3 Bft)
13.08.2013 13:00 19,5 C 58 % 1014,3 hPa 0,0 l/m 7,0 km/h (2 Bft) W-NW 11,0 C 19,1 C 15,2 km/h (3 Bft)
13.08.2013 14:00 16,7 C 79 % 1014,7 hPa 2,4 l/m 7,4 km/h (2 Bft) NW 12,7 C 16,0 C 15,8 km/h (3 Bft)
13.08.2013 15:00 13,5 C 93 % 1016,0 hPa 0,0 l/m 4,6 km/h (1 Bft) NW 12,3 C 13,2 C 11,3 km/h (2 Bft)
13.08.2013 16:00 15,2 C 85 % 1015,9 hPa 0,2 l/m 5,2 km/h (1 Bft) SW 12,6 C 15,2 C 14,5 km/h (3 Bft)
13.08.2013 17:00 17,6 C 69 % 1015,9 hPa 0,0 l/m 5,3 km/h (1 Bft) W 11,8 C 17,5 C 14,5 km/h (3 Bft)
13.08.2013 18:00 15,1 C 80 % 1016,3 hPa 0,4 l/m 4,2 km/h (1 Bft) SW 11,6 C 15,1 C 11,4 km/h (2 Bft)
13.08.2013 19:00 14,3 C 83 % 1016,6 hPa 0,0 l/m 4,0 km/h (1 Bft) S-SW 11,5 C 14,3 C 9,8 km/h (2 Bft)
13.08.2013 20:00 13,6 C 85 % 1017,1 hPa 0,0 l/m 3,2 km/h (1 Bft) W-SW 11,1 C 13,6 C 8,3 km/h (2 Bft)
13.08.2013 21:00 12,9 C 87 % 1017,6 hPa 0,0 l/m 2,0 km/h (1 Bft) SW 10,8 C 12,9 C 6,0 km/h (2 Bft)
13.08.2013 22:00 12,1 C 89 % 1018,0 hPa 0,0 l/m 2,9 km/h (1 Bft) W 10,3 C 12,1 C 8,0 km/h (2 Bft)
13.08.2013 23:00 11,5 C 90 % 1018,3 hPa 0,0 l/m 2,2 km/h (1 Bft) W 9,9 C 11,5 C 6,3 km/h (2 Bft)
14.08.2013 00:00 11,1 C 92 % 1018,5 hPa 0,0 l/m 2,0 km/h (1 Bft) W 9,8 C 11,1 C 6,1 km/h (2 Bft)
14.08.2013 01:00 10,9 C 92 % 1018,7 hPa 0,0 l/m 1,6 km/h (1 Bft) SW 9,7 C 10,9 C 5,3 km/h (1 Bft)
14.08.2013 02:00 10,4 C 93 % 1018,7 hPa 0,0 l/m 0,7 km/h (0 Bft) W 9,3 C 10,4 C 3,5 km/h (1 Bft)
14.08.2013 03:00 10,3 C 93 % 1018,8 hPa 0,0 l/m 1,7 km/h (1 Bft) SW 9,2 C 10,3 C 6,1 km/h (2 Bft)
14.08.2013 04:00 10,1 C 94 % 1018,9 hPa 0,0 l/m 1,5 km/h (1 Bft) SW 9,1 C 10,1 C 6,0 km/h (2 Bft)
14.08.2013 05:00 9,9 C 94 % 1019,2 hPa 0,0 l/m 1,4 km/h (1 Bft) W 9,0 C 9,9 C 4,9 km/h (1 Bft)
14.08.2013 06:00 9,7 C 94 % 1019,5 hPa 0,2 l/m 0,2 km/h (0 Bft) S 8,8 C 9,7 C 1,3 km/h (1 Bft)
14.08.2013 07:00 10,7 C 94 % 1019,8 hPa 0,0 l/m 2,7 km/h (1 Bft) W-SW 9,8 C 10,7 C 8,6 km/h (2 Bft)
14.08.2013 08:00 12,4 C 90 % 1020,3 hPa 0,0 l/m 3,9 km/h (1 Bft) W-NW 10,9 C 12,4 C 11,2 km/h (2 Bft)
14.08.2013 09:00 14,5 C 85 % 1020,6 hPa 0,0 l/m 4,9 km/h (1 Bft) W-SW 11,9 C 14,4 C 13,0 km/h (3 Bft)
14.08.2013 10:00 16,2 C 77 % 1020,8 hPa 0,0 l/m 6,0 km/h (2 Bft) W-SW 12,2 C 16,1 C 14,8 km/h (3 Bft)
14.08.2013 11:00 17,0 C 70 % 1020,9 hPa 0,0 l/m 5,5 km/h (2 Bft) W 11,5 C 17,0 C 14,8 km/h (3 Bft)
14.08.2013 12:00 18,3 C 61 % 1020,8 hPa 0,0 l/m 7,0 km/h (2 Bft) W-NW 10,6 C 17,9 C 18,4 km/h (3 Bft)
14.08.2013 13:00 19,0 C 57 % 1020,8 hPa 0,0 l/m 6,6 km/h (2 Bft) W-SW 10,3 C 18,9 C 17,7 km/h (3 Bft)
14.08.2013 14:00 19,4 C 55 % 1021,1 hPa 0,0 l/m 6,7 km/h (2 Bft) S-SW 9,9 C 19,1 C 16,9 km/h (3 Bft)
14.08.2013 15:00 17,9 C 61 % 1021,6 hPa 0,0 l/m 6,6 km/h (2 Bft) W-NW 10,1 C 17,5 C 15,6 km/h (3 Bft)
14.08.2013 16:00 17,4 C 65 % 1021,8 hPa 0,0 l/m 4,2 km/h (1 Bft) W-NW 10,7 C 17,4 C 11,1 km/h (2 Bft)
14.08.2013 17:00 17,4 C 68 % 1021,6 hPa 0,0 l/m 2,1 km/h (1 Bft) W-NW 11,5 C 17,4 C 5,7 km/h (2 Bft)
14.08.2013 18:00 17,8 C 64 % 1021,8 hPa 0,0 l/m 6,3 km/h (2 Bft) NW 10,8 C 17,5 C 13,2 km/h (3 Bft)
14.08.2013 19:00 17,7 C 63 % 1021,7 hPa 0,0 l/m 3,0 km/h (1 Bft) NW 10,6 C 17,7 C 7,7 km/h (2 Bft)
14.08.2013 20:00 16,6 C 69 % 1022,1 hPa 0,0 l/m 0,3 km/h (0 Bft) N 11,0 C 16,6 C 1,7 km/h (1 Bft)
14.08.2013 21:00 14,2 C 80 % 1022,5 hPa 0,0 l/m 0,0 km/h (0 Bft) N 10,7 C 14,2 C 0,0 km/h (0 Bft)
14.08.2013 22:00 11,7 C 87 % 1022,8 hPa 0,0 l/m 0,0 km/h (0 Bft) N 9,5 C 11,7 C 0,0 km/h (0 Bft)
14.08.2013 23:00 9,7 C 91 % 1022,8 hPa 0,0 l/m 0,0 km/h (0 Bft) N 8,3 C 9,7 C 0,0 km/h (0 Bft)
15.08.2013 00:00 8,6 C 93 % 1022,8 hPa 0,0 l/m 0,0 km/h (0 Bft) N 7,5 C 8,6 C 0,0 km/h (0 Bft)
15.08.2013 01:00 7,5 C 94 % 1022,9 hPa 0,0 l/m 0,0 km/h (0 Bft) N 6,6 C 7,5 C 0,0 km/h (0 Bft)
15.08.2013 02:00 6,7 C 94 % 1023,0 hPa 0,0 l/m 0,0 km/h (0 Bft) N 5,8 C 6,7 C 0,0 km/h (0 Bft)
15.08.2013 03:00 6,0 C 95 % 1023,0 hPa 0,0 l/m 0,0 km/h (0 Bft) N 5,2 C 6,0 C 0,0 km/h (0 Bft)
15.08.2013 04:00 5,1 C 95 % 1023,0 hPa 0,0 l/m 0,0 km/h (0 Bft) N 4,4 C 5,1 C 0,0 km/h (0 Bft)
15.08.2013 05:00 4,4 C 95 % 1022,9 hPa 0,0 l/m 0,0 km/h (0 Bft) N 3,6 C 4,4 C 0,0 km/h (0 Bft)
15.08.2013 06:00 4,8 C 96 % 1023,1 hPa 0,0 l/m 0,0 km/h (0 Bft) N 4,1 C 4,8 C 0,0 km/h (0 Bft)
15.08.2013 07:00 8,0 C 96 % 1023,1 hPa 0,0 l/m 0,0 km/h (0 Bft) N 7,4 C 8,0 C 0,0 km/h (0 Bft)
15.08.2013 08:00 12,7 C 89 % 1023,1 hPa 0,0 l/m 0,3 km/h (0 Bft) S-SW 10,9 C 12,7 C 0,9 km/h (0 Bft)
15.08.2013 09:00 16,3 C 74 % 1023,1 hPa 0,0 l/m 2,1 km/h (1 Bft) O-SO 11,6 C 16,3 C 5,3 km/h (1 Bft)
15.08.2013 10:00 18,5 C 64 % 1022,9 hPa 0,0 l/m 3,5 km/h (1 Bft) S 11,6 C 18,5 C 8,0 km/h (2 Bft)
15.08.2013 11:00 20,3 C 57 % 1022,5 hPa 0,0 l/m 4,4 km/h (1 Bft) S-SW 11,5 C 20,3 C 10,3 km/h (2 Bft)
15.08.2013 12:00 21,3 C 54 % 1022,0 hPa 0,0 l/m 6,2 km/h (2 Bft) SW 11,6 C 21,1 C 12,5 km/h (2 Bft)
15.08.2013 13:00 21,9 C 52 % 1021,5 hPa 0,0 l/m 6,0 km/h (2 Bft) S 11,5 C 21,8 C 14,9 km/h (3 Bft)
15.08.2013 14:00 22,6 C 48 % 1021,0 hPa 0,0 l/m 5,4 km/h (1 Bft) SW 11,1 C 22,5 C 12,5 km/h (2 Bft)
15.08.2013 15:00 23,2 C 45 % 1020,7 hPa 0,0 l/m 5,7 km/h (2 Bft) S-SW 10,6 C 23,1 C 14,4 km/h (3 Bft)
15.08.2013 16:00 23,0 C 46 % 1020,5 hPa 0,0 l/m 4,9 km/h (1 Bft) SW 10,6 C 23,0 C 11,1 km/h (2 Bft)
15.08.2013 17:00 23,0 C 47 % 1020,2 hPa 0,0 l/m 3,8 km/h (1 Bft) SW 11,2 C 23,0 C 10,2 km/h (2 Bft)
15.08.2013 18:00 22,6 C 49 % 1019,9 hPa 0,0 l/m 2,3 km/h (1 Bft) S 11,4 C 22,6 C 6,4 km/h (2 Bft)
15.08.2013 19:00 21,9 C 54 % 1019,8 hPa 0,0 l/m 0,4 km/h (0 Bft) S-SW 12,1 C 21,9 C 1,1 km/h (0 Bft)
15.08.2013 20:00 20,3 C 65 % 1019,9 hPa 0,0 l/m 0,0 km/h (0 Bft) N 13,5 C 20,3 C 0,0 km/h (0 Bft)
15.08.2013 21:00 18,5 C 77 % 1020,1 hPa 0,0 l/m 0,0 km/h (0 Bft) N 14,5 C 18,5 C 0,0 km/h (0 Bft)
15.08.2013 22:00 17,7 C 81 % 1020,2 hPa 0,0 l/m 0,0 km/h (0 Bft) N 14,4 C 17,7 C 0,0 km/h (0 Bft)
15.08.2013 23:00 17,0 C 82 % 1020,4 hPa 0,0 l/m 0,0 km/h (0 Bft) N 13,9 C 17,0 C 0,0 km/h (0 Bft)
16.08.2013 00:00 17,1 C 82 % 1020,3 hPa 0,0 l/m 0,0 km/h (0 Bft) N 14,0 C 17,1 C 0,0 km/h (0 Bft)
16.08.2013 01:00 15,1 C 87 % 1020,1 hPa 0,0 l/m 0,0 km/h (0 Bft) N 13,0 C 15,1 C 0,0 km/h (0 Bft)
16.08.2013 02:00 13,7 C 91 % 1019,9 hPa 0,0 l/m 0,0 km/h (0 Bft) N 12,2 C 13,7 C 0,0 km/h (0 Bft)
16.08.2013 03:00 13,5 C 93 % 1019,6 hPa 0,0 l/m 0,0 km/h (0 Bft) N 12,4 C 13,5 C 0,0 km/h (0 Bft)
16.08.2013 04:00 13,4 C 93 % 1019,6 hPa 0,0 l/m 0,0 km/h (0 Bft) N 12,4 C 13,4 C 0,0 km/h (0 Bft)
16.08.2013 05:00 13,1 C 94 % 1019,5 hPa 0,0 l/m 0,0 km/h (0 Bft) N 12,0 C 13,1 C 0,0 km/h (0 Bft)
16.08.2013 06:00 13,5 C 94 % 1019,5 hPa 0,0 l/m 0,0 km/h (0 Bft) N 12,5 C 13,5 C 0,0 km/h (0 Bft)
16.08.2013 07:00 14,8 C 93 % 1019,5 hPa 0,0 l/m 0,0 km/h (0 Bft) N 13,7 C 14,8 C 0,0 km/h (0 Bft)
16.08.2013 08:00 17,3 C 84 % 1019,5 hPa 0,0 l/m 0,6 km/h (0 Bft) S-SW 14,5 C 17,3 C 2,1 km/h (1 Bft)
16.08.2013 09:00 20,1 C 70 % 1019,3 hPa 0,0 l/m 3,8 km/h (1 Bft) S 14,4 C 20,1 C 7,6 km/h (2 Bft)
16.08.2013 10:00 22,0 C 61 % 1018,9 hPa 0,0 l/m 5,8 km/h (2 Bft) S 14,1 C 21,9 C 11,4 km/h (2 Bft)
16.08.2013 11:00 23,9 C 52 % 1018,5 hPa 0,0 l/m 6,4 km/h (2 Bft) S-SW 13,5 C 23,7 C 12,8 km/h (3 Bft)
16.08.2013 12:00 25,5 C 44 % 1018,0 hPa 0,0 l/m 7,5 km/h (2 Bft) S-SW 12,4 C 25,2 C 15,7 km/h (3 Bft)
16.08.2013 13:00 26,4 C 39 % 1017,4 hPa 0,0 l/m 8,9 km/h (2 Bft) S-SW 11,5 C 26,0 C 18,8 km/h (3 Bft)
16.08.2013 14:00 27,4 C 37 % 1016,9 hPa 0,0 l/m 8,3 km/h (2 Bft) SW 11,2 C 27,0 C 18,5 km/h (3 Bft)
16.08.2013 15:00 27,7 C 36 % 1016,5 hPa 0,0 l/m 7,1 km/h (2 Bft) S-SW 11,3 C 27,5 C 16,1 km/h (3 Bft)
16.08.2013 16:00 28,1 C 35 % 1016,0 hPa 0,0 l/m 6,8 km/h (2 Bft) S-SW 11,2 C 28,0 C 14,5 km/h (3 Bft)
16.08.2013 17:00 28,2 C 34 % 1015,6 hPa 0,0 l/m 6,0 km/h (2 Bft) S 10,9 C 28,2 C 12,8 km/h (3 Bft)
16.08.2013 18:00 28,1 C 34 % 1015,3 hPa 0,0 l/m 5,1 km/h (1 Bft) SW 10,8 C 28,0 C 11,2 km/h (2 Bft)
16.08.2013 19:00 27,4 C 36 % 1015,0 hPa 0,0 l/m 2,7 km/h (1 Bft) S 11,0 C 27,4 C 5,9 km/h (2 Bft)
16.08.2013 20:00 23,9 C 48 % 1015,1 hPa 0,0 l/m 0,0 km/h (0 Bft) N 12,2 C 23,9 C 0,4 km/h (0 Bft)
16.08.2013 21:00 19,0 C 68 % 1015,2 hPa 0,0 l/m 0,0 km/h (0 Bft) N 13,0 C 19,0 C 0,0 km/h (0 Bft)
16.08.2013 22:00 17,4 C 73 % 1015,1 hPa 0,0 l/m 0,0 km/h (0 Bft) N 12,4 C 17,4 C 0,0 km/h (0 Bft)
16.08.2013 23:00 15,3 C 79 % 1014,9 hPa 0,0 l/m 0,0 km/h (0 Bft) N 11,7 C 15,3 C 0,0 km/h (0 Bft)
17.08.2013 00:00 14,3 C 86 % 1014,8 hPa 0,0 l/m 0,0 km/h (0 Bft) N 11,9 C 14,3 C 0,0 km/h (0 Bft)
17.08.2013 01:00 13,2 C 88 % 1014,5 hPa 0,0 l/m 0,0 km/h (0 Bft) N 11,1 C 13,2 C 0,0 km/h (0 Bft)
17.08.2013 02:00 12,4 C 90 % 1014,3 hPa 0,0 l/m 0,6 km/h (0 Bft) SO 10,7 C 12,4 C 2,0 km/h (1 Bft)
17.08.2013 03:00 12,6 C 86 % 1014,3 hPa 0,0 l/m 0,2 km/h (0 Bft) N-NW 10,2 C 12,6 C 0,4 km/h (0 Bft)
17.08.2013 04:00 12,1 C 89 % 1014,0 hPa 0,0 l/m 0,2 km/h (0 Bft) N 10,3 C 12,1 C 0,6 km/h (0 Bft)
17.08.2013 05:00 12,3 C 89 % 1014,1 hPa 0,0 l/m 0,1 km/h (0 Bft) N 10,5 C 12,3 C 0,4 km/h (0 Bft)
17.08.2013 06:00 13,4 C 89 % 1014,8 hPa 0,0 l/m 0,3 km/h (0 Bft) W-SW 11,5 C 13,4 C 1,2 km/h (1 Bft)
17.08.2013 07:00 16,1 C 88 % 1015,0 hPa 0,0 l/m 1,1 km/h (1 Bft) NW 14,1 C 16,1 C 2,5 km/h (1 Bft)
17.08.2013 08:00 18,9 C 81 % 1015,0 hPa 0,0 l/m 2,0 km/h (1 Bft) N-NW 15,6 C 18,9 C 4,1 km/h (1 Bft)
17.08.2013 09:00 19,7 C 78 % 1015,1 hPa 0,0 l/m 1,4 km/h (1 Bft) NW 15,7 C 19,7 C 3,7 km/h (1 Bft)
17.08.2013 10:00 19,6 C 77 % 1014,9 hPa 0,0 l/m 1,5 km/h (1 Bft) W-SW 15,5 C 19,6 C 3,9 km/h (1 Bft)
17.08.2013 11:00 19,9 C 76 % 1015,1 hPa 0,0 l/m 2,3 km/h (1 Bft) W-SW 15,6 C 19,9 C 6,2 km/h (2 Bft)
17.08.2013 12:00 20,4 C 74 % 1015,1 hPa 0,0 l/m 4,2 km/h (1 Bft) W 15,6 C 20,4 C 10,3 km/h (2 Bft)
17.08.2013 13:00 21,1 C 73 % 1014,8 hPa 0,0 l/m 3,2 km/h (1 Bft) S-SW 16,1 C 21,1 C 8,7 km/h (2 Bft)
17.08.2013 14:00 22,4 C 69 % 1014,5 hPa 0,0 l/m 3,8 km/h (1 Bft) S-SW 16,4 C 22,4 C 10,1 km/h (2 Bft)
17.08.2013 15:00 24,0 C 63 % 1014,2 hPa 0,0 l/m 4,1 km/h (1 Bft) SW 16,5 C 24,0 C 9,4 km/h (2 Bft)
17.08.2013 16:00 24,7 C 60 % 1013,9 hPa 0,0 l/m 4,2 km/h (1 Bft) S-SO 16,3 C 24,7 C 9,1 km/h (2 Bft)
17.08.2013 17:00 25,6 C 56 % 1013,7 hPa 0,0 l/m 3,7 km/h (1 Bft) S-SW 16,2 C 25,6 C 8,6 km/h (2 Bft)
17.08.2013 18:00 25,5 C 56 % 1013,1 hPa 0,0 l/m 3,1 km/h (1 Bft) S-SW 16,1 C 25,5 C 7,2 km/h (2 Bft)
17.08.2013 19:00 24,0 C 61 % 1012,8 hPa 0,0 l/m 0,9 km/h (0 Bft) S 16,0 C 24,0 C 2,3 km/h (1 Bft)
17.08.2013 20:00 21,4 C 74 % 1012,9 hPa 0,0 l/m 0,0 km/h (0 Bft) N 16,4 C 21,4 C 0,0 km/h (0 Bft)
17.08.2013 21:00 18,2 C 84 % 1012,9 hPa 0,0 l/m 0,0 km/h (0 Bft) N 15,5 C 18,2 C 0,3 km/h (0 Bft)
17.08.2013 22:00 16,2 C 90 % 1012,7 hPa 0,0 l/m 0,0 km/h (0 Bft) N 14,6 C 16,2 C 0,0 km/h (0 Bft)
17.08.2013 23:00 15,5 C 92 % 1012,5 hPa 0,0 l/m 0,0 km/h (0 Bft) N 14,2 C 15,5 C 0,0 km/h (0 Bft)
18.08.2013 00:00 15,3 C 93 % 1012,4 hPa 0,0 l/m 0,0 km/h (0 Bft) N 14,2 C 15,3 C 0,0 km/h (0 Bft)
18.08.2013 01:00 14,9 C 93 % 1012,0 hPa 0,0 l/m 0,0 km/h (0 Bft) N 13,9 C 14,9 C 0,0 km/h (0 Bft)
18.08.2013 02:00 15,0 C 94 % 1011,6 hPa 0,0 l/m 0,0 km/h (0 Bft) N 14,0 C 15,0 C 0,0 km/h (0 Bft)
18.08.2013 03:00 14,9 C 94 % 1011,3 hPa 0,0 l/m 0,0 km/h (0 Bft) N 13,9 C 14,9 C 0,0 km/h (0 Bft)
18.08.2013 04:00 15,3 C 94 % 1011,0 hPa 0,0 l/m 0,0 km/h (0 Bft) N 14,3 C 15,3 C 0,0 km/h (0 Bft)
18.08.2013 05:00 16,2 C 92 % 1010,8 hPa 0,0 l/m 0,1 km/h (0 Bft) N 14,8 C 16,2 C 0,7 km/h (0 Bft)
18.08.2013 06:00 16,9 C 89 % 1010,5 hPa 0,0 l/m 0,7 km/h (0 Bft) S-SW 15,0 C 16,9 C 3,3 km/h (1 Bft)
18.08.2013 07:00 17,9 C 85 % 1010,4 hPa 0,0 l/m 2,7 km/h (1 Bft) S 15,4 C 17,9 C 6,5 km/h (2 Bft)
18.08.2013 08:00 19,8 C 78 % 1010,6 hPa 0,0 l/m 4,8 km/h (1 Bft) S 15,9 C 19,8 C 10,7 km/h (2 Bft)
18.08.2013 09:00 22,0 C 69 % 1010,6 hPa 0,0 l/m 5,9 km/h (2 Bft) S-SO 16,1 C 22,0 C 12,9 km/h (3 Bft)
18.08.2013 10:00 22,7 C 66 % 1010,7 hPa 0,0 l/m 6,8 km/h (2 Bft) S 16,0 C 22,5 C 14,0 km/h (3 Bft)
18.08.2013 11:00 22,1 C 70 % 1010,9 hPa 0,8 l/m 5,3 km/h (1 Bft) S-SW 16,3 C 22,0 C 12,8 km/h (3 Bft)
18.08.2013 12:00 18,0 C 85 % 1011,3 hPa 2,2 l/m 5,8 km/h (2 Bft) S-SW 15,5 C 17,7 C 12,6 km/h (2 Bft)
18.08.2013 13:00 19,0 C 85 % 1010,8 hPa 0,0 l/m 2,8 km/h (1 Bft) SW 16,4 C 19,0 C 6,0 km/h (2 Bft)
18.08.2013 14:00 20,1 C 85 % 1011,0 hPa 0,2 l/m 1,8 km/h (1 Bft) S-SW 17,6 C 20,1 C 4,7 km/h (1 Bft)
18.08.2013 15:00 21,0 C 83 % 1011,0 hPa 0,0 l/m 1,7 km/h (1 Bft) S-SW 17,9 C 21,0 C 4,8 km/h (1 Bft)
18.08.2013 16:00 20,8 C 81 % 1011,2 hPa 0,0 l/m 2,0 km/h (1 Bft) W 17,4 C 20,8 C 6,4 km/h (2 Bft)
18.08.2013 17:00 20,1 C 82 % 1011,5 hPa 0,0 l/m 1,6 km/h (1 Bft) NW 17,0 C 20,1 C 5,2 km/h (1 Bft)
18.08.2013 18:00 18,5 C 89 % 1012,0 hPa 1,6 l/m 5,0 km/h (1 Bft) SW 16,7 C 18,5 C 12,4 km/h (2 Bft)
18.08.2013 19:00 18,1 C 92 % 1012,0 hPa 0,0 l/m 3,1 km/h (1 Bft) S-SW 16,8 C 18,1 C 7,4 km/h (2 Bft)
18.08.2013 20:00 17,9 C 92 % 1012,2 hPa 0,0 l/m 1,2 km/h (1 Bft) SW 16,6 C 17,9 C 3,2 km/h (1 Bft)
18.08.2013 21:00 17,6 C 93 % 1012,5 hPa 1,0 l/m 0,9 km/h (0 Bft) S-SW 16,5 C 17,6 C 3,2 km/h (1 Bft)
18.08.2013 22:00 17,3 C 94 % 1012,5 hPa 0,2 l/m 2,0 km/h (1 Bft) S-SW 16,3 C 17,3 C 5,7 km/h (2 Bft)
18.08.2013 23:00 16,1 C 92 % 1012,7 hPa 0,0 l/m 0,4 km/h (0 Bft) N 14,8 C 16,1 C 2,3 km/h (1 Bft)
Min-Datum _ 15.08.13 16.08.13 18.08.13 - 12.08.13 - 15.08.13 15.08.13 12.08.13
_ Min-Zeit 05:20 17:25 07:05 - 00:55 - 05:20 05:20 00:55
Minimum _ 4,1 C 33 % 1010,3 hPa - 0,0 km/h (0 Bft) - 3,4 C 4,1 C 0,0 km/h (0 Bft)
Max-Datum _ 16.08.13 15.08.13 15.08.13 12.08.13 13.08.13 - 18.08.13 16.08.13 14.08.13
_ Max-Zeit 16:55 06:20 06:20 12:25 14:55 - 15:30 16:55 12:50
Maximum _ 28,3 C 96 % 1023,2 hPa 5,4 l/m 13,3 km/h
NW (3 Bft)
- 18,1 C 28,3 C 27,4 km/h
SW (5 Bft)
Durchschnitt _ 16,8 C 78 % 1016,3 hPa #15,0 l/m 2,5 km/h (1 Bft) SW 12,4 C 16,7 C 6,2 km/h (2 Bft)